Wednesday, February 22, 2017, 12:27 PM EST

KGED, Georgetown Sussex Co Airport

Location: Georgetown, DE, United States Lat: 38.683
Local Time: 12:27 PM EST (17:27 GMT) Lon: -75.367
Time Zone: US/Eastern Elev: 52 ft

Show me the last for .
Show Decoded

2017-02-22 11:54 METAR KGED 221654Z AUTO 21007KT 10SM FEW031 SCT120 16/10 A3000 RMK AO2 SLP160
                 T01560100 $ =
2017-02-22 10:54 METAR KGED 221554Z AUTO 00000KT 10SM OVC032 13/09 A3004 RMK AO2 SLP172 T01330089
                 =
2017-02-22 09:54 METAR KGED 221454Z AUTO 21004KT 10SM CLR 11/08 A3005 RMK AO2 SLP176 T01110083
                 58002 =
2017-02-22 08:54 METAR KGED 221354Z AUTO 00000KT 10SM CLR 09/07 A3007 RMK AO2 SLP183 T00890067 =
2017-02-22 07:54 METAR KGED 221254Z AUTO 00000KT 10SM CLR 07/06 A3007 RMK AO2 SLP183 T00720056 =
2017-02-22 06:54 METAR KGED 221154Z AUTO 00000KT 10SM CLR 06/04 A3006 RMK AO2 SLP178 T00560044
                 10067 20033 55002 =
2017-02-22 05:54 METAR KGED 221054Z AUTO 00000KT 10SM CLR 07/04 A3005 RMK AO2 SLP177 T00670044 =
2017-02-22 04:54 METAR KGED 220954Z AUTO 21003KT 10SM CLR 04/03 A3006 RMK AO2 SLP178 T00440028 =
2017-02-21 15:54 METAR KGED 212054Z AUTO 14012KT 10SM CLR 11/02 A3023 RMK AO2 SLP236 T01060022
                 56018 =
2017-02-21 14:54 METAR KGED 211954Z AUTO 14008KT 10SM CLR 12/02 A3024 RMK AO2 SLP239 T01170022 $
                 =
2017-02-21 13:54 METAR KGED 211854Z AUTO 16008KT 120V190 10SM CLR 12/02 A3026 RMK AO2 SLP245
                 T01220022 $ =
2017-02-21 12:54 METAR KGED 211754Z AUTO 15006KT 10SM CLR 12/02 A3028 RMK AO2 SLP254 T01170017
                 10122 20000 58023 $ =

Support USWX by starting your Amazon purchase here.